EGYH

Holbeach Airport

United Kingdom
METAR EGYH 201450Z 01031G41KT 9999 BKN025 07/04 Q1020 BLU
Observed Flight Rules
Feb-20 @ 14:50 UTC (3 hours ago) Marginal Visual Flight Rules
Wind Visibility Clouds
10° at 31 knots
 Gusting to 41 knots
10,000+ meters
  • Broken at 2,500' AGL
Temperatures Readings
Current 7°C / 45°F
Dewpoint 4°C / 39°F
Humidity 81%
Altimeter 30.12" Hg
Pressure 1020 hPa
Elevation 3
METAR EGYH 201450Z 01031G41KT 9999 BKN025 07/04 Q1020 BLU
Observed Flight Rules
Feb-20 @ 14:50 UTC
(3 hours ago)
MVFR
Wind Visibility
10° at 31 knots
 Gusting to 41 knots
10,000+ meters
Clouds
  • Broken at 2,500' AGL
Temperature Dewpoint
7°C / 45°F 4°C / 39°F
Humidity Altimeter Pressure
81% 30.12" Hg 1020 hPa